createdAt,value
2023-11-05T00:00:20.555Z,6.90
2023-11-05T00:02:47.730Z,6.90
2023-11-05T00:05:16.090Z,6.90
2023-11-05T00:07:43.360Z,7.00
2023-11-05T00:10:11.597Z,6.90
2023-11-05T00:12:38.944Z,6.90
2023-11-05T00:15:06.868Z,7.00
2023-11-05T00:17:35.332Z,6.90
2023-11-05T00:20:08.437Z,7.00
2023-11-05T00:22:36.034Z,6.90
2023-11-05T00:25:03.204Z,6.80
2023-11-05T00:27:30.248Z,6.80
2023-11-05T00:29:58.708Z,6.70
2023-11-05T00:32:25.917Z,6.60
2023-11-05T00:34:52.985Z,6.60
2023-11-05T00:37:20.317Z,6.60
2023-11-05T00:39:47.381Z,6.50
2023-11-05T00:42:14.345Z,6.50
2023-11-05T00:44:41.457Z,6.50
2023-11-05T00:47:08.607Z,6.40
2023-11-05T00:49:35.693Z,6.40
2023-11-05T00:52:03.832Z,6.40
2023-11-05T00:54:31.109Z,6.40
2023-11-05T00:56:58.106Z,6.40
2023-11-05T00:59:25.190Z,6.30
2023-11-05T01:01:52.217Z,6.30
2023-11-05T01:04:19.389Z,6.20
2023-11-05T01:06:46.544Z,6.20
2023-11-05T01:09:13.652Z,6.20
2023-11-05T01:11:42.340Z,6.20
2023-11-05T01:14:09.425Z,6.20
2023-11-05T01:16:36.661Z,6.20
2023-11-05T01:19:04.424Z,6.20
2023-11-05T01:21:31.415Z,6.20
2023-11-05T01:23:58.600Z,6.20
2023-11-05T01:26:25.814Z,6.30
2023-11-05T01:28:52.776Z,6.30
2023-11-05T01:31:19.782Z,6.30
2023-11-05T01:33:46.815Z,6.40
2023-11-05T01:36:13.795Z,6.30
2023-11-05T01:38:40.917Z,6.40
2023-11-05T01:41:07.971Z,6.40
2023-11-05T01:43:35.308Z,6.40
2023-11-05T01:46:02.505Z,6.40
2023-11-05T01:48:29.798Z,6.40
2023-11-05T01:50:57.289Z,6.50
2023-11-05T01:53:25.330Z,6.40
2023-11-05T01:55:52.470Z,6.50
2023-11-05T01:58:20.097Z,6.50
2023-11-05T02:00:47.883Z,6.50
2023-11-05T02:03:15.739Z,6.50
2023-11-05T02:05:42.849Z,6.50
2023-11-05T02:08:09.933Z,6.50
2023-11-05T02:10:36.970Z,6.60
2023-11-05T02:13:04.641Z,6.60
2023-11-05T02:15:31.795Z,6.60
2023-11-05T02:17:59.040Z,6.60
2023-11-05T02:20:26.590Z,6.60
2023-11-05T02:22:57.745Z,6.60
2023-11-05T02:25:24.992Z,6.60
2023-11-05T02:27:53.378Z,6.60
2023-11-05T02:30:21.433Z,6.50
2023-11-05T02:32:48.633Z,6.50
2023-11-05T02:35:16.152Z,6.50
2023-11-05T02:37:43.174Z,6.50
2023-11-05T02:40:11.763Z,6.50
2023-11-05T02:42:39.380Z,6.60
2023-11-05T02:45:07.031Z,6.60
2023-11-05T02:47:34.314Z,6.60
2023-11-05T02:50:01.563Z,6.60
2023-11-05T02:52:28.624Z,6.60
2023-11-05T02:54:55.781Z,6.60
2023-11-05T02:57:23.036Z,6.50
2023-11-05T02:59:50.777Z,6.60
2023-11-05T03:02:17.930Z,6.50
2023-11-05T03:04:45.414Z,6.60
2023-11-05T03:07:14.363Z,6.60
2023-11-05T03:09:41.709Z,6.60
2023-11-05T03:12:08.925Z,6.60
2023-11-05T03:14:36.183Z,6.60
2023-11-05T03:17:03.229Z,6.60
2023-11-05T03:19:30.358Z,6.60
2023-11-05T03:21:57.484Z,6.70
2023-11-05T03:24:24.478Z,6.70
2023-11-05T03:26:51.624Z,6.70
2023-11-05T03:29:19.564Z,6.70
2023-11-05T03:31:49.343Z,6.70
2023-11-05T03:34:16.729Z,6.70
2023-11-05T03:36:43.730Z,6.60
2023-11-05T03:39:10.803Z,6.60
2023-11-05T03:41:37.920Z,6.70
2023-11-05T03:44:05.524Z,6.70
2023-11-05T03:46:32.563Z,6.70
2023-11-05T03:48:59.671Z,6.70
2023-11-05T03:51:27.165Z,6.70
2023-11-05T03:53:54.228Z,6.70
2023-11-05T03:56:21.396Z,6.80
2023-11-05T03:58:48.590Z,6.80
2023-11-05T04:01:21.288Z,6.90
2023-11-05T04:03:48.402Z,6.90
2023-11-05T04:06:18.969Z,6.90
2023-11-05T04:08:48.354Z,6.90
2023-11-05T04:11:16.006Z,7.00
2023-11-05T04:13:49.520Z,7.00
2023-11-05T04:16:16.831Z,7.00
2023-11-05T04:18:45.420Z,7.00
2023-11-05T04:21:12.346Z,7.00
2023-11-05T04:23:40.541Z,7.00
2023-11-05T04:26:07.894Z,7.00
2023-11-05T04:28:35.251Z,7.00
2023-11-05T04:31:02.378Z,7.00
2023-11-05T04:33:29.417Z,7.10
2023-11-05T04:35:56.559Z,7.30
2023-11-05T04:38:23.578Z,7.40
2023-11-05T04:40:50.717Z,7.60
2023-11-05T04:43:19.061Z,7.70
2023-11-05T04:45:46.192Z,7.90
2023-11-05T04:48:13.535Z,8.00
2023-11-05T04:50:41.285Z,8.20
2023-11-05T04:53:08.698Z,8.30
2023-11-05T04:55:35.869Z,8.40
2023-11-05T04:58:03.142Z,8.50
2023-11-05T05:00:30.687Z,8.50
2023-11-05T05:02:57.925Z,8.50
2023-11-05T05:05:25.247Z,8.50
2023-11-05T05:07:52.644Z,8.50
2023-11-05T05:10:19.725Z,8.50
2023-11-05T05:12:46.684Z,8.50
2023-11-05T05:15:14.232Z,8.60
2023-11-05T05:17:41.178Z,8.70
2023-11-05T05:20:09.834Z,8.70
2023-11-05T05:22:37.066Z,8.80
2023-11-05T05:25:04.727Z,8.80
2023-11-05T05:27:32.308Z,8.80
2023-11-05T05:30:01.227Z,8.70
2023-11-05T05:32:28.468Z,8.60
2023-11-05T05:34:55.667Z,8.60
2023-11-05T05:37:22.650Z,8.60
2023-11-05T05:39:50.130Z,8.60
2023-11-05T05:42:17.199Z,8.60
2023-11-05T05:44:44.337Z,8.70
2023-11-05T05:47:11.376Z,8.70
2023-11-05T05:49:38.532Z,8.60
2023-11-05T05:52:05.805Z,8.60
2023-11-05T05:54:32.895Z,8.60
2023-11-05T05:57:00.009Z,8.50
2023-11-05T05:59:27.118Z,8.40
2023-11-05T06:01:54.315Z,8.40
2023-11-05T06:04:21.714Z,8.40
2023-11-05T06:06:48.837Z,8.30
2023-11-05T06:09:20.956Z,8.30
2023-11-05T06:11:48.692Z,8.30
2023-11-05T06:14:15.953Z,8.20
2023-11-05T06:16:43.079Z,8.20
2023-11-05T06:19:10.222Z,8.20
2023-11-05T06:21:37.886Z,8.30
2023-11-05T06:24:05.187Z,8.30
2023-11-05T06:26:32.221Z,8.30
2023-11-05T06:28:59.265Z,8.30
2023-11-05T06:31:26.372Z,8.30
2023-11-05T06:33:53.470Z,8.30
2023-11-05T06:36:21.106Z,8.30
2023-11-05T06:38:48.210Z,8.40
2023-11-05T06:41:15.287Z,8.50
2023-11-05T06:43:42.453Z,8.50
2023-11-05T06:46:09.528Z,8.60
2023-11-05T06:48:37.770Z,8.60
2023-11-05T06:51:06.137Z,8.70
2023-11-05T06:53:33.271Z,8.60
2023-11-05T06:56:00.319Z,8.70
2023-11-05T06:58:27.395Z,8.70
2023-11-05T07:00:54.473Z,8.70
2023-11-05T07:03:25.544Z,8.80
2023-11-05T07:05:53.475Z,8.80
2023-11-05T07:08:20.813Z,8.80
2023-11-05T07:10:48.010Z,8.80
2023-11-05T07:13:15.173Z,8.80
2023-11-05T07:15:42.227Z,8.80
2023-11-05T07:18:12.078Z,8.70
2023-11-05T07:20:40.760Z,8.80
2023-11-05T07:23:07.871Z,8.60
2023-11-05T07:25:34.836Z,8.60
2023-11-05T07:28:01.881Z,8.50
2023-11-05T07:30:28.931Z,8.30
2023-11-05T07:32:56.302Z,8.30
2023-11-05T07:35:24.711Z,8.30
2023-11-05T07:37:51.799Z,8.20
2023-11-05T07:40:18.884Z,8.20
2023-11-05T07:42:45.893Z,8.10
2023-11-05T07:45:14.158Z,8.10
2023-11-05T07:47:41.272Z,8.00
2023-11-05T07:50:12.375Z,8.00
2023-11-05T07:52:42.631Z,8.00
2023-11-05T07:55:09.913Z,8.00
2023-11-05T07:57:37.527Z,8.00
2023-11-05T08:00:04.911Z,8.00
2023-11-05T08:02:32.643Z,8.00
2023-11-05T08:04:59.772Z,8.00
2023-11-05T08:07:27.232Z,8.10
2023-11-05T08:09:55.470Z,8.20
2023-11-05T08:12:22.798Z,8.40
2023-11-05T08:14:49.988Z,8.50
2023-11-05T08:17:17.065Z,8.60
2023-11-05T08:19:44.143Z,8.80
2023-11-05T08:22:12.410Z,8.80
2023-11-05T08:24:39.538Z,8.80
2023-11-05T08:27:06.503Z,8.90
2023-11-05T08:29:35.108Z,8.80
2023-11-05T08:32:02.122Z,8.80
2023-11-05T08:34:29.255Z,8.90
2023-11-05T08:36:56.317Z,8.90
2023-11-05T08:39:23.456Z,8.80
2023-11-05T08:41:50.527Z,8.90
2023-11-05T08:44:17.786Z,9.10
2023-11-05T08:46:45.982Z,9.30
2023-11-05T08:49:13.108Z,9.50
2023-11-05T08:51:40.160Z,9.60
2023-11-05T08:54:07.113Z,9.70
2023-11-05T08:56:34.190Z,9.80
2023-11-05T08:59:01.209Z,9.90
2023-11-05T09:01:30.518Z,10.10
2023-11-05T09:03:57.538Z,10.10
2023-11-05T09:06:26.451Z,10.10
2023-11-05T09:08:53.549Z,10.20
2023-11-05T09:11:21.503Z,10.30
2023-11-05T09:13:48.516Z,10.50
2023-11-05T09:16:16.617Z,10.50
2023-11-05T09:18:43.779Z,10.60
2023-11-05T09:21:10.819Z,10.70
2023-11-05T09:23:37.799Z,10.90
2023-11-05T09:26:04.853Z,11.20
2023-11-05T09:28:32.640Z,11.40
2023-11-05T09:31:01.086Z,11.60
2023-11-05T09:33:28.105Z,11.60
2023-11-05T09:35:55.292Z,11.70
2023-11-05T09:38:22.461Z,11.80
2023-11-05T09:40:49.762Z,11.80
2023-11-05T09:43:17.097Z,11.90
2023-11-05T09:45:45.200Z,12.00
2023-11-05T09:48:15.292Z,12.00
2023-11-05T09:50:43.472Z,11.90
2023-11-05T09:53:15.954Z,11.90
2023-11-05T09:55:45.399Z,12.00
2023-11-05T09:58:14.210Z,11.90
2023-11-05T10:00:41.567Z,11.80
2023-11-05T10:03:10.350Z,12.00
2023-11-05T10:05:42.339Z,12.00
2023-11-05T10:08:10.196Z,12.10
2023-11-05T10:10:38.527Z,12.30
2023-11-05T10:13:08.882Z,12.50
2023-11-05T10:15:39.769Z,12.50
2023-11-05T10:18:08.294Z,12.40
2023-11-05T10:20:47.802Z,12.30
2023-11-05T10:23:15.018Z,12.20
2023-11-05T10:25:47.039Z,12.20
2023-11-05T10:28:15.402Z,12.40
2023-11-05T10:30:43.103Z,12.50
2023-11-05T10:33:12.339Z,12.60
2023-11-05T10:35:41.320Z,12.80
2023-11-05T10:38:12.041Z,13.10
2023-11-05T10:40:39.738Z,13.40
2023-11-05T10:43:08.394Z,13.50
2023-11-05T10:45:36.191Z,13.60
2023-11-05T10:48:03.957Z,13.70
2023-11-05T10:50:31.560Z,13.60
2023-11-05T10:53:00.503Z,13.60
2023-11-05T10:55:34.473Z,13.80
2023-11-05T10:58:14.532Z,14.00
2023-11-05T11:00:59.477Z,14.10
2023-11-05T11:03:29.955Z,14.10
2023-11-05T11:05:58.357Z,14.00
2023-11-05T11:08:27.742Z,14.00
2023-11-05T11:11:20.859Z,13.80
2023-11-05T11:13:58.839Z,13.70
2023-11-05T11:16:37.161Z,13.60
2023-11-05T11:19:06.840Z,13.50
2023-11-05T11:21:34.699Z,13.60
2023-11-05T11:24:06.249Z,13.70
2023-11-05T11:26:37.648Z,13.90
2023-11-05T11:29:06.374Z,14.00
2023-11-05T11:31:34.214Z,14.20
2023-11-05T11:34:01.243Z,14.30
2023-11-05T11:36:28.295Z,14.30
2023-11-05T11:38:55.269Z,14.30
2023-11-05T11:41:22.853Z,14.10
2023-11-05T11:43:50.308Z,14.00
2023-11-05T11:46:23.345Z,14.10
2023-11-05T11:48:50.605Z,14.00
2023-11-05T11:51:21.197Z,14.00
2023-11-05T11:53:49.095Z,14.10
2023-11-05T11:56:16.133Z,14.00
2023-11-05T11:58:44.112Z,14.00
2023-11-05T12:01:17.249Z,13.90
2023-11-05T12:03:45.055Z,13.90
2023-11-05T12:06:12.197Z,13.90
2023-11-05T12:08:50.163Z,13.80
2023-11-05T12:11:20.618Z,13.50
2023-11-05T12:13:48.405Z,13.20
2023-11-05T12:16:18.727Z,13.10
2023-11-05T12:18:46.617Z,13.30
2023-11-05T12:21:14.921Z,13.40
2023-11-05T12:23:42.747Z,13.40
2023-11-05T12:26:10.925Z,13.50
2023-11-05T12:28:39.071Z,13.50
2023-11-05T12:31:08.244Z,13.60
2023-11-05T12:33:39.392Z,13.60
2023-11-05T12:36:08.357Z,13.70
2023-11-05T12:38:35.917Z,14.00
2023-11-05T12:41:03.061Z,14.30
2023-11-05T12:43:30.357Z,14.30
2023-11-05T12:45:57.821Z,14.00
2023-11-05T12:48:31.513Z,13.90
2023-11-05T12:51:01.368Z,13.80
2023-11-05T12:53:28.640Z,13.90
2023-11-05T12:55:59.796Z,14.20
2023-11-05T12:58:26.745Z,14.40
2023-11-05T13:00:53.771Z,14.40
2023-11-05T13:03:20.819Z,14.40
2023-11-05T13:05:48.350Z,14.30
2023-11-05T13:08:15.488Z,14.10
2023-11-05T13:10:43.412Z,13.90
2023-11-05T13:13:10.504Z,14.00
2023-11-05T13:15:38.463Z,13.90
2023-11-05T13:18:05.665Z,13.80
2023-11-05T13:20:33.655Z,13.70
2023-11-05T13:23:04.945Z,13.60
2023-11-05T13:25:32.531Z,13.70
2023-11-05T13:28:00.843Z,13.80
2023-11-05T13:30:30.614Z,13.90
2023-11-05T13:32:57.692Z,13.90
2023-11-05T13:35:26.695Z,13.80
2023-11-05T13:37:53.739Z,13.70
2023-11-05T13:40:21.536Z,13.60
2023-11-05T13:42:48.885Z,13.60
2023-11-05T13:45:15.910Z,13.50
2023-11-05T13:47:42.964Z,13.30
2023-11-05T13:50:10.209Z,13.10
2023-11-05T13:52:37.658Z,13.00
2023-11-05T13:55:06.775Z,12.90
2023-11-05T13:57:33.904Z,12.80
2023-11-05T14:00:00.990Z,12.70
2023-11-05T14:02:28.001Z,12.50
2023-11-05T14:04:55.098Z,12.40
2023-11-05T14:07:22.213Z,12.40
2023-11-05T14:09:49.442Z,12.30
2023-11-05T14:12:16.502Z,12.20
2023-11-05T14:14:43.458Z,12.20
2023-11-05T14:17:11.342Z,12.10
2023-11-05T14:19:38.351Z,12.10
2023-11-05T14:22:05.689Z,12.30
2023-11-05T14:24:34.043Z,12.40
2023-11-05T14:27:04.450Z,12.50
2023-11-05T14:29:33.033Z,12.60
2023-11-05T14:32:00.564Z,12.70
2023-11-05T14:34:27.597Z,12.70
2023-11-05T14:36:54.668Z,12.60
2023-11-05T14:39:22.196Z,12.50
2023-11-05T14:41:50.324Z,12.30
2023-11-05T14:44:17.558Z,12.20
2023-11-05T14:46:44.631Z,12.20
2023-11-05T14:49:11.743Z,12.10
2023-11-05T14:51:38.850Z,12.10
2023-11-05T14:54:05.961Z,12.10
2023-11-05T14:56:32.892Z,12.10
2023-11-05T14:59:01.857Z,12.30
2023-11-05T15:01:29.205Z,12.40
2023-11-05T15:03:56.304Z,12.30
2023-11-05T15:06:25.008Z,12.30
2023-11-05T15:08:52.079Z,12.20
2023-11-05T15:11:19.054Z,11.90
2023-11-05T15:13:46.058Z,11.70
2023-11-05T15:16:13.013Z,11.50
2023-11-05T15:18:40.057Z,11.30
2023-11-05T15:21:07.900Z,11.10
2023-11-05T15:23:34.970Z,11.00
2023-11-05T15:26:02.007Z,10.80
2023-11-05T15:28:30.989Z,10.70
2023-11-05T15:31:00.800Z,10.60
2023-11-05T15:33:36.093Z,10.40
2023-11-05T15:36:03.021Z,10.30
2023-11-05T15:38:33.214Z,10.10
2023-11-05T15:41:00.246Z,9.90
2023-11-05T15:43:27.690Z,9.70
2023-11-05T15:45:54.668Z,9.70
2023-11-05T15:48:22.565Z,9.60
2023-11-05T15:50:51.052Z,9.70
2023-11-05T15:53:19.580Z,9.60
2023-11-05T15:55:46.710Z,9.60
2023-11-05T15:58:14.286Z,9.60
2023-11-05T16:00:41.397Z,9.70
2023-11-05T16:03:08.370Z,9.70
2023-11-05T16:05:35.431Z,9.70
2023-11-05T16:08:02.623Z,9.70
2023-11-05T16:10:29.807Z,9.80
2023-11-05T16:12:56.860Z,9.80
2023-11-05T16:15:23.830Z,9.80
2023-11-05T16:17:50.897Z,9.70
2023-11-05T16:20:17.928Z,9.70
2023-11-05T16:22:45.357Z,9.70
2023-11-05T16:25:12.413Z,9.60
2023-11-05T16:27:39.519Z,9.60
2023-11-05T16:30:07.241Z,9.60
2023-11-05T16:32:34.791Z,9.60
2023-11-05T16:35:02.115Z,9.70
2023-11-05T16:37:29.202Z,9.70
2023-11-05T16:39:56.157Z,9.70
2023-11-05T16:42:23.175Z,9.80
2023-11-05T16:44:51.802Z,9.90
2023-11-05T16:47:19.179Z,9.90
2023-11-05T16:49:46.219Z,9.90
2023-11-05T16:52:15.958Z,9.90
2023-11-05T16:54:44.267Z,9.90
2023-11-05T16:57:11.778Z,10.00
2023-11-05T16:59:39.869Z,10.00
2023-11-05T17:02:08.727Z,10.00
2023-11-05T17:04:35.796Z,10.10
2023-11-05T17:07:04.591Z,10.10
2023-11-05T17:09:34.156Z,10.10
2023-11-05T17:12:01.918Z,10.10
2023-11-05T17:14:28.861Z,10.10
2023-11-05T17:16:55.895Z,10.20
2023-11-05T17:19:22.868Z,10.20
2023-11-05T17:21:50.383Z,10.10
2023-11-05T17:24:17.655Z,10.20
2023-11-05T17:26:51.790Z,10.30
2023-11-05T17:29:22.032Z,10.40
2023-11-05T17:31:49.261Z,10.40
2023-11-05T17:34:16.437Z,10.40
2023-11-05T17:36:43.771Z,10.50
2023-11-05T17:39:12.048Z,10.60
2023-11-05T17:41:42.058Z,10.60
2023-11-05T17:44:09.113Z,10.60
2023-11-05T17:46:36.304Z,10.60
2023-11-05T17:49:04.333Z,10.50
2023-11-05T17:51:31.869Z,10.50
2023-11-05T17:53:59.306Z,10.40
2023-11-05T17:56:29.459Z,10.40
2023-11-05T17:58:57.619Z,10.40
2023-11-05T18:01:24.720Z,10.40
2023-11-05T18:03:51.778Z,10.30
2023-11-05T18:06:19.173Z,10.30
2023-11-05T18:08:46.234Z,10.30
2023-11-05T18:11:13.497Z,10.40
2023-11-05T18:13:41.445Z,10.40
2023-11-05T18:16:08.549Z,10.30
2023-11-05T18:18:35.834Z,10.30
2023-11-05T18:21:02.959Z,10.30
2023-11-05T18:23:30.067Z,10.30
2023-11-05T18:25:57.177Z,10.30
2023-11-05T18:28:24.215Z,10.20
2023-11-05T18:30:51.259Z,10.20
2023-11-05T18:33:18.308Z,10.10
2023-11-05T18:35:45.537Z,10.00
2023-11-05T18:38:12.547Z,9.80
2023-11-05T18:40:39.768Z,9.80
2023-11-05T18:43:06.901Z,9.80
2023-11-05T18:45:33.852Z,9.80
2023-11-05T18:48:01.021Z,9.70
2023-11-05T18:50:28.058Z,9.70
2023-11-05T18:52:55.225Z,9.60
2023-11-05T18:55:22.249Z,9.50
2023-11-05T18:57:50.042Z,9.40
2023-11-05T19:00:17.161Z,9.30
2023-11-05T19:02:45.329Z,9.40
2023-11-05T19:05:12.974Z,9.40
2023-11-05T19:07:40.324Z,9.50
2023-11-05T19:10:08.927Z,9.50
2023-11-05T19:12:36.118Z,9.50
2023-11-05T19:15:03.183Z,9.70
2023-11-05T19:17:30.262Z,9.80
2023-11-05T19:19:57.955Z,10.00
2023-11-05T19:22:25.282Z,10.30
2023-11-05T19:24:52.456Z,10.60
2023-11-05T19:27:19.591Z,10.70
2023-11-05T19:29:46.597Z,10.70
2023-11-05T19:32:13.678Z,10.90
2023-11-05T19:34:41.921Z,11.00
2023-11-05T19:37:09.005Z,11.10
2023-11-05T19:39:37.076Z,11.20
2023-11-05T19:42:04.631Z,11.10
2023-11-05T19:44:33.540Z,11.00
2023-11-05T19:47:04.541Z,10.90
2023-11-05T19:49:32.913Z,10.80
2023-11-05T19:52:02.182Z,10.80
2023-11-05T19:54:29.188Z,10.70
2023-11-05T19:56:56.942Z,10.70
2023-11-05T19:59:23.913Z,10.80
2023-11-05T20:01:51.047Z,10.80
2023-11-05T20:04:18.054Z,10.80
2023-11-05T20:06:54.530Z,10.80
2023-11-05T20:09:21.510Z,10.90
2023-11-05T20:11:48.700Z,11.10
2023-11-05T20:14:15.986Z,11.10
2023-11-05T20:16:46.068Z,11.20
2023-11-05T20:19:13.323Z,11.30
2023-11-05T20:21:40.833Z,11.40
2023-11-05T20:24:08.103Z,11.50
2023-11-05T20:26:35.110Z,11.40
2023-11-05T20:29:10.053Z,11.50
2023-11-05T20:31:38.259Z,11.60
2023-11-05T20:34:08.325Z,11.50
2023-11-05T20:36:35.943Z,11.60
2023-11-05T20:39:03.138Z,11.60
2023-11-05T20:41:30.107Z,11.60
2023-11-05T20:43:57.490Z,11.60
2023-11-05T20:46:24.709Z,11.60
2023-11-05T20:48:52.141Z,11.70
2023-11-05T20:51:19.698Z,11.70
2023-11-05T20:53:46.851Z,11.80
2023-11-05T20:56:15.286Z,11.80
2023-11-05T20:58:45.581Z,11.90
2023-11-05T21:01:12.985Z,11.90
2023-11-05T21:03:40.503Z,11.90
2023-11-05T21:06:07.816Z,12.00
2023-11-05T21:08:34.908Z,11.90
2023-11-05T21:11:08.840Z,11.90
2023-11-05T21:13:36.627Z,11.90
2023-11-05T21:16:03.810Z,11.80
2023-11-05T21:18:30.875Z,11.80
2023-11-05T21:20:58.015Z,11.80
2023-11-05T21:23:24.934Z,11.90
2023-11-05T21:25:51.998Z,11.90
2023-11-05T21:28:18.985Z,11.90
2023-11-05T21:30:46.006Z,12.00
2023-11-05T21:33:13.148Z,12.10
2023-11-05T21:35:40.255Z,12.10
2023-11-05T21:38:07.457Z,12.00
2023-11-05T21:40:34.505Z,12.00
2023-11-05T21:43:01.589Z,12.10
2023-11-05T21:45:29.779Z,12.00
2023-11-05T21:47:57.101Z,11.90
2023-11-05T21:50:26.295Z,11.80
2023-11-05T21:52:53.705Z,11.70
2023-11-05T21:55:21.534Z,11.70
2023-11-05T21:57:48.556Z,11.60
2023-11-05T22:00:15.679Z,11.50
2023-11-05T22:02:42.788Z,11.30
2023-11-05T22:05:10.260Z,11.40
2023-11-05T22:07:37.967Z,11.30
2023-11-05T22:10:06.030Z,11.10
2023-11-05T22:12:33.794Z,11.10
2023-11-05T22:15:00.815Z,11.10
2023-11-05T22:17:27.874Z,11.10
2023-11-05T22:19:55.102Z,11.10
2023-11-05T22:22:23.649Z,11.00
2023-11-05T22:24:53.045Z,10.90
2023-11-05T22:27:20.478Z,10.80
2023-11-05T22:29:47.652Z,10.70
2023-11-05T22:32:16.778Z,10.60
2023-11-05T22:34:44.171Z,10.50
2023-11-05T22:37:11.819Z,10.40
2023-11-05T22:39:39.490Z,10.50
2023-11-05T22:42:07.232Z,10.50
2023-11-05T22:44:34.313Z,10.40
2023-11-05T22:47:01.359Z,10.30
2023-11-05T22:49:28.548Z,10.30
2023-11-05T22:51:55.513Z,10.40
2023-11-05T22:54:22.729Z,10.30
2023-11-05T22:56:51.092Z,10.40
2023-11-05T22:59:18.067Z,10.30
2023-11-05T23:01:45.128Z,10.30
2023-11-05T23:04:12.160Z,10.40
2023-11-05T23:06:39.223Z,10.30
2023-11-05T23:09:06.393Z,10.30
2023-11-05T23:11:36.391Z,10.30
2023-11-05T23:14:04.591Z,10.20
2023-11-05T23:16:31.764Z,10.20
2023-11-05T23:18:58.813Z,10.10
2023-11-05T23:21:26.307Z,10.10
2023-11-05T23:23:53.411Z,10.00
2023-11-05T23:26:20.528Z,10.00
2023-11-05T23:28:47.617Z,9.90
2023-11-05T23:31:14.805Z,9.80
2023-11-05T23:33:42.156Z,9.80
2023-11-05T23:36:09.411Z,9.70
2023-11-05T23:38:37.054Z,9.80
2023-11-05T23:41:05.179Z,9.80
2023-11-05T23:43:32.661Z,9.70
2023-11-05T23:45:59.762Z,9.70
2023-11-05T23:48:26.886Z,9.70
2023-11-05T23:50:54.148Z,9.70
2023-11-05T23:53:21.214Z,9.80
2023-11-05T23:55:48.481Z,9.80
2023-11-05T23:58:17.004Z,9.60
